createdAt,value
2023-03-22T00:02:07.098Z,74.81
2023-03-22T00:04:36.525Z,74.91
2023-03-22T00:07:05.473Z,75.23
2023-03-22T00:09:34.549Z,75.01
2023-03-22T00:12:05.400Z,75.26
2023-03-22T00:14:37.201Z,75.22
2023-03-22T00:17:08.888Z,75.24
2023-03-22T00:19:44.470Z,75.58
2023-03-22T00:22:16.553Z,75.63
2023-03-22T00:24:49.910Z,75.73
2023-03-22T00:27:19.523Z,75.69
2023-03-22T00:29:49.484Z,75.80
2023-03-22T00:32:19.656Z,75.78
2023-03-22T00:34:50.355Z,75.76
2023-03-22T00:37:22.915Z,75.94
2023-03-22T00:39:55.584Z,75.95
2023-03-22T00:42:26.784Z,76.11
2023-03-22T00:44:57.318Z,76.12
2023-03-22T00:47:27.198Z,76.09
2023-03-22T00:49:57.963Z,75.94
2023-03-22T00:52:27.925Z,75.93
2023-03-22T00:54:58.633Z,75.85
2023-03-22T00:57:28.587Z,75.87
2023-03-22T00:59:59.532Z,76.01
2023-03-22T01:02:30.323Z,75.94
2023-03-22T01:05:03.626Z,76.10
2023-03-22T01:07:34.437Z,76.13
2023-03-22T01:10:07.440Z,76.25
2023-03-22T01:12:38.222Z,75.98
2023-03-22T01:15:09.816Z,76.10
2023-03-22T01:17:39.920Z,76.19
2023-03-22T01:20:12.233Z,76.23
2023-03-22T01:22:42.211Z,76.07
2023-03-22T01:25:16.104Z,76.29
2023-03-22T01:27:47.004Z,76.38
2023-03-22T01:30:17.599Z,76.44
2023-03-22T01:32:52.489Z,76.29
2023-03-22T01:35:25.173Z,76.25
2023-03-22T01:37:57.023Z,76.58
2023-03-22T01:40:27.946Z,76.43
2023-03-22T01:42:59.665Z,76.44
2023-03-22T01:45:51.260Z,76.59
2023-03-22T01:48:36.204Z,77.06
2023-03-22T01:51:19.185Z,77.02
2023-03-22T01:53:54.182Z,77.04
2023-03-22T01:56:27.434Z,77.03
2023-03-22T01:58:58.742Z,76.84
2023-03-22T02:01:29.672Z,77.00
2023-03-22T02:04:34.446Z,77.00
2023-03-22T02:07:10.821Z,77.17
2023-03-22T02:09:43.580Z,77.12
2023-03-22T02:12:45.111Z,77.33
2023-03-22T02:15:27.097Z,77.43
2023-03-22T02:18:24.386Z,77.50
2023-03-22T02:21:32.971Z,77.36
2023-03-22T02:24:10.808Z,77.43
2023-03-22T02:27:07.606Z,77.36
2023-03-22T02:29:47.982Z,77.40
2023-03-22T02:32:17.456Z,77.42
2023-03-22T02:34:48.939Z,77.27
2023-03-22T02:37:20.673Z,77.54
2023-03-22T02:40:11.691Z,77.54
2023-03-22T02:42:55.467Z,77.48
2023-03-22T02:45:35.072Z,77.65
2023-03-22T02:48:17.822Z,77.68
2023-03-22T02:50:56.945Z,77.99
2023-03-22T02:53:30.121Z,77.82
2023-03-22T02:56:05.653Z,77.78
2023-03-22T02:58:46.995Z,77.70
2023-03-22T03:01:30.230Z,77.62
2023-03-22T03:04:07.536Z,77.64
2023-03-22T03:06:47.450Z,77.77
2023-03-22T03:09:22.079Z,77.83
2023-03-22T03:11:57.511Z,77.98
2023-03-22T03:14:30.779Z,77.87
2023-03-22T03:17:17.427Z,77.95
2023-03-22T03:20:05.102Z,77.72
2023-03-22T03:22:50.823Z,77.71
2023-03-22T03:25:49.426Z,77.71
2023-03-22T03:28:52.198Z,77.91
2023-03-22T03:31:27.660Z,77.99
2023-03-22T03:34:19.104Z,77.79
2023-03-22T03:36:55.395Z,78.01
2023-03-22T03:39:28.577Z,77.86
2023-03-22T03:42:00.241Z,77.98
2023-03-22T03:44:34.237Z,77.95
2023-03-22T03:47:05.359Z,78.01
2023-03-22T03:49:36.463Z,77.97
2023-03-22T03:52:10.245Z,78.10
2023-03-22T03:54:44.948Z,78.11
2023-03-22T03:57:17.953Z,78.30
2023-03-22T03:59:50.876Z,78.41
2023-03-22T04:02:21.241Z,78.29
2023-03-22T04:04:51.717Z,78.43
2023-03-22T04:07:24.663Z,78.29
2023-03-22T04:09:55.824Z,78.46
2023-03-22T04:12:29.436Z,78.63
2023-03-22T04:14:58.555Z,78.57
2023-03-22T04:17:34.424Z,78.72
2023-03-22T04:20:08.047Z,78.87
2023-03-22T04:22:41.111Z,78.83
2023-03-22T04:25:16.251Z,78.65
2023-03-22T04:27:47.458Z,78.80
2023-03-22T04:30:22.194Z,78.58
2023-03-22T04:32:52.178Z,78.81
2023-03-22T04:35:24.426Z,78.97
2023-03-22T04:37:55.110Z,78.88
2023-03-22T04:40:29.434Z,78.79
2023-03-22T04:43:01.267Z,78.71
2023-03-22T04:45:37.404Z,79.00
2023-03-22T04:48:08.897Z,79.08
2023-03-22T04:50:42.014Z,78.96
2023-03-22T04:53:12.677Z,78.92
2023-03-22T04:55:44.811Z,79.03
2023-03-22T04:58:17.875Z,78.97
2023-03-22T05:00:49.528Z,79.04
2023-03-22T05:03:22.260Z,79.08
2023-03-22T05:05:55.547Z,78.93
2023-03-22T05:08:26.726Z,79.07
2023-03-22T05:10:57.113Z,79.15
2023-03-22T05:13:27.574Z,79.16
2023-03-22T05:15:59.382Z,79.17
2023-03-22T05:18:28.807Z,79.03
2023-03-22T05:20:58.525Z,79.33
2023-03-22T05:23:27.564Z,79.45
2023-03-22T05:25:58.939Z,79.48
2023-03-22T05:28:31.048Z,79.61
2023-03-22T05:31:05.734Z,79.50
2023-03-22T05:33:37.268Z,79.23
2023-03-22T05:36:08.161Z,79.66
2023-03-22T05:38:37.118Z,79.54
2023-03-22T05:41:06.758Z,79.64
2023-03-22T05:43:35.895Z,79.68
2023-03-22T05:46:13.402Z,79.80
2023-03-22T05:48:43.135Z,79.87
2023-03-22T05:51:17.917Z,79.98
2023-03-22T05:53:50.236Z,80.01
2023-03-22T05:56:22.215Z,79.86
2023-03-22T05:58:52.600Z,80.08
2023-03-22T06:01:21.611Z,80.09
2023-03-22T06:03:51.205Z,80.30
2023-03-22T06:06:20.413Z,80.47
2023-03-22T06:08:51.019Z,80.42
2023-03-22T06:11:21.277Z,80.44
2023-03-22T06:13:49.895Z,80.62
2023-03-22T06:16:19.160Z,80.48
2023-03-22T06:18:48.188Z,80.53
2023-03-22T06:21:19.019Z,80.66
2023-03-22T06:23:51.430Z,80.65
2023-03-22T06:26:26.905Z,80.65
2023-03-22T06:28:57.249Z,80.66
2023-03-22T06:31:27.786Z,80.42
2023-03-22T06:34:00.292Z,80.49
2023-03-22T06:36:33.384Z,80.58
2023-03-22T06:39:06.182Z,80.14
2023-03-22T06:41:39.000Z,80.39
2023-03-22T06:44:10.659Z,80.36
2023-03-22T06:46:44.346Z,80.37
2023-03-22T06:49:16.410Z,80.42
2023-03-22T06:51:50.575Z,80.08
2023-03-22T06:54:31.084Z,79.89
2023-03-22T06:57:06.999Z,79.88
2023-03-22T06:59:45.451Z,79.76
2023-03-22T07:02:19.019Z,79.41
2023-03-22T07:04:54.288Z,79.37
2023-03-22T07:07:25.085Z,79.35
2023-03-22T07:09:59.453Z,79.37
2023-03-22T07:12:33.857Z,79.19
2023-03-22T07:15:08.988Z,79.10
2023-03-22T07:17:43.786Z,78.71
2023-03-22T07:20:20.349Z,79.20
2023-03-22T07:22:54.498Z,79.02
2023-03-22T07:25:30.670Z,78.63
2023-03-22T07:28:09.821Z,78.85
2023-03-22T07:30:44.449Z,78.48
2023-03-22T07:33:19.280Z,78.46
2023-03-22T07:35:52.902Z,78.70
2023-03-22T07:38:27.234Z,78.74
2023-03-22T07:41:00.490Z,78.26
2023-03-22T07:43:29.963Z,78.35
2023-03-22T07:46:01.200Z,78.51
2023-03-22T07:48:35.018Z,78.56
2023-03-22T07:51:11.120Z,78.34
2023-03-22T07:53:46.531Z,78.01
2023-03-22T07:56:18.805Z,78.40
2023-03-22T07:58:50.806Z,78.53
2023-03-22T08:01:26.808Z,78.73
2023-03-22T08:03:59.904Z,78.37
2023-03-22T08:06:35.727Z,78.08
2023-03-22T08:09:12.316Z,78.12
2023-03-22T08:11:49.538Z,77.80
2023-03-22T08:14:35.839Z,77.82
2023-03-22T08:17:17.726Z,77.70
2023-03-22T08:19:58.676Z,77.29
2023-03-22T08:22:32.550Z,77.06
2023-03-22T08:25:06.071Z,77.00
2023-03-22T08:27:34.729Z,76.73
2023-03-22T08:30:06.709Z,76.85
2023-03-22T08:32:42.970Z,76.91
2023-03-22T08:35:14.272Z,76.53
2023-03-22T08:37:49.852Z,76.64
2023-03-22T08:40:25.762Z,76.57
2023-03-22T08:43:02.976Z,76.31
2023-03-22T08:45:38.982Z,76.35
2023-03-22T08:48:15.464Z,75.84
2023-03-22T08:50:49.327Z,76.08
2023-03-22T08:53:23.582Z,75.90
2023-03-22T08:55:59.769Z,75.40
2023-03-22T08:58:32.638Z,74.96
2023-03-22T09:01:07.375Z,75.50
2023-03-22T09:03:42.040Z,75.12
2023-03-22T09:06:18.281Z,75.05
2023-03-22T09:08:55.796Z,74.74
2023-03-22T09:11:30.411Z,74.95
2023-03-22T09:14:07.330Z,74.62
2023-03-22T09:16:42.386Z,75.14
2023-03-22T09:19:20.288Z,74.30
2023-03-22T09:22:01.052Z,74.30
2023-03-22T09:24:36.504Z,74.10
2023-03-22T09:27:10.799Z,73.84
2023-03-22T09:29:48.314Z,73.56
2023-03-22T09:32:29.378Z,73.84
2023-03-22T09:35:03.153Z,72.81
2023-03-22T09:37:35.971Z,72.96
2023-03-22T09:40:10.574Z,72.92
2023-03-22T09:42:57.066Z,72.62
2023-03-22T09:45:40.267Z,72.64
2023-03-22T09:48:19.458Z,72.07
2023-03-22T09:51:00.064Z,71.20
2023-03-22T09:53:35.817Z,71.26
2023-03-22T09:56:27.368Z,71.57
2023-03-22T09:59:25.705Z,71.71
2023-03-22T10:02:07.115Z,71.52
2023-03-22T10:04:50.357Z,71.33
2023-03-22T10:07:37.922Z,71.34
2023-03-22T10:10:22.243Z,71.27
2023-03-22T10:12:56.024Z,71.41
2023-03-22T10:15:47.908Z,71.10
2023-03-22T10:18:24.724Z,70.68
2023-03-22T10:21:02.583Z,70.89
2023-03-22T10:23:45.348Z,70.41
2023-03-22T10:26:27.059Z,69.91
2023-03-22T10:29:15.929Z,70.33
2023-03-22T10:31:51.091Z,70.02
2023-03-22T10:34:31.728Z,69.93
2023-03-22T10:37:09.352Z,69.65
2023-03-22T10:39:52.798Z,69.59
2023-03-22T10:42:31.981Z,69.33
2023-03-22T10:45:12.355Z,69.05
2023-03-22T10:47:52.481Z,68.90
2023-03-22T10:50:34.366Z,68.93
2023-03-22T10:53:29.905Z,68.49
2023-03-22T10:56:03.134Z,68.77
2023-03-22T10:58:40.386Z,68.90
2023-03-22T11:01:27.926Z,68.84
2023-03-22T11:04:10.987Z,67.83
2023-03-22T11:06:56.089Z,68.58
2023-03-22T11:09:29.641Z,68.60
2023-03-22T11:12:04.300Z,68.94
2023-03-22T11:14:48.810Z,68.32
2023-03-22T11:17:28.045Z,68.25
2023-03-22T11:20:07.151Z,68.28
2023-03-22T11:22:48.372Z,67.61
2023-03-22T11:25:28.945Z,67.59
2023-03-22T11:28:07.556Z,67.70
2023-03-22T11:30:44.311Z,67.27
2023-03-22T11:33:24.732Z,67.00
2023-03-22T11:36:04.048Z,67.10
2023-03-22T11:38:42.076Z,66.51
2023-03-22T11:41:34.312Z,66.95
2023-03-22T11:44:15.104Z,66.67
2023-03-22T11:47:00.676Z,67.58
2023-03-22T11:49:42.282Z,67.02
2023-03-22T11:52:30.429Z,67.42
2023-03-22T11:55:07.432Z,66.75
2023-03-22T11:57:44.252Z,67.48
2023-03-22T12:00:30.081Z,66.87
2023-03-22T12:03:07.202Z,66.49
2023-03-22T12:05:44.537Z,66.43
2023-03-22T12:08:22.762Z,66.41
2023-03-22T12:11:06.548Z,66.52
2023-03-22T12:14:00.922Z,64.87
2023-03-22T12:16:43.492Z,65.36
2023-03-22T12:19:19.775Z,65.24
2023-03-22T12:21:59.405Z,64.88
2023-03-22T12:24:36.806Z,64.42
2023-03-22T12:27:34.984Z,64.84
2023-03-22T12:30:14.433Z,65.24
2023-03-22T12:32:54.176Z,65.45
2023-03-22T12:35:34.569Z,64.23
2023-03-22T12:38:25.357Z,64.02
2023-03-22T12:41:00.893Z,63.92
2023-03-22T12:43:58.924Z,62.95
2023-03-22T12:46:34.492Z,62.77
2023-03-22T12:49:36.498Z,62.88
2023-03-22T12:52:29.932Z,62.55
2023-03-22T12:55:08.450Z,63.11
2023-03-22T12:57:43.102Z,62.65
2023-03-22T13:00:19.649Z,60.63
2023-03-22T13:03:03.153Z,61.42
2023-03-22T13:05:39.831Z,61.43
2023-03-22T13:08:11.411Z,61.62
2023-03-22T13:11:05.708Z,60.92
2023-03-22T13:13:51.102Z,61.09
2023-03-22T13:16:26.187Z,61.17
2023-03-22T13:19:01.262Z,61.30
2023-03-22T13:21:39.869Z,60.95
2023-03-22T13:24:23.626Z,60.67
2023-03-22T13:27:02.585Z,60.39
2023-03-22T13:29:39.331Z,60.05
2023-03-22T13:32:34.104Z,58.74
2023-03-22T13:35:07.281Z,59.68
2023-03-22T13:37:51.436Z,60.12
2023-03-22T13:40:52.704Z,59.87
2023-03-22T13:43:29.877Z,59.74
2023-03-22T13:46:24.316Z,59.66
2023-03-22T13:49:23.126Z,60.04
2023-03-22T13:52:03.121Z,60.05
2023-03-22T13:54:47.721Z,58.90
2023-03-22T13:57:44.116Z,58.64
2023-03-22T14:00:36.294Z,58.30
2023-03-22T14:03:22.742Z,59.02
2023-03-22T14:06:17.122Z,59.21
2023-03-22T14:08:55.500Z,58.88
2023-03-22T14:11:29.817Z,59.04
2023-03-22T14:14:12.419Z,59.34
2023-03-22T14:16:49.534Z,59.87
2023-03-22T14:19:27.742Z,59.43
